• Join FlightAware (Why Join?)
  • Login
  • US Flag 
07:56PM EST


 

Airport Tracker/Info


-or-


 

Live Flight TrackerFlight Track Log ✈ N232CF ✈ 12-Jun-2013 ✈ K24 - KMTN

Flight Track Log - Related Links

Times and Time Zones

All times are in EDT time to prevent confusion due to time zone crossing. See the N232CF flight status page for this flight to view local times or setup timezone preferences in your user account.

Time Position Orientation Groundspeed Altitude Reporting Facility
EDT Latitude Longitude Course Direction KTS MPH feet Rate Location/Type
07:54PM 37.0056 -84.9269 67° East 305 351 8,100  Level Indianapolis Center
07:55PM 37.0525 -84.8031 65° Northeast 330 380 10,900 2,580 Climbing Indianapolis Center
07:56PM 37.0969 -84.6858 65° Northeast 370 426 13,500 2,700 Climbing Indianapolis Center
07:57PM 37.1414 -84.5667 65° Northeast 375 432 16,500 2,580 Climbing Indianapolis Center
07:58PM 37.1853 -84.4458 65° Northeast 379 436 18,800 2,040 Climbing Indianapolis Center
07:59PM 37.7029 -83.1414 67° East  Level FlightAware Approximate
07:59PM 37.2333 -84.3208 64° Northeast 393 452 20,800  Level Indianapolis Center
08:00PM 37.2811 -84.1897 65° Northeast 411 473 22,900 1,920 Climbing Indianapolis Center
08:01PM 37.3311 -84.0542 65° Northeast 421 484 24,800 1,920 Climbing Indianapolis Center
08:02PM 37.3917 -83.8914 65° Northeast 444 511 26,900 1,740 Climbing Indianapolis Center
08:03PM 37.4436 -83.7494 65° Northeast 448 516 28,500 1,440 Climbing Indianapolis Center
08:04PM 37.4964 -83.6022 66° East 459 528 29,900 1,380 Climbing Indianapolis Center
08:05PM 37.5514 -83.4508 65° Northeast 471 542 31,400 1,620 Climbing Indianapolis Center
08:06PM 37.6064 -83.2947 66° East 482 555 33,300 1,740 Climbing Indianapolis Center
08:07PM 37.6636 -83.1364 65° Northeast 488 562 35,100 1,740 Climbing Indianapolis Center
08:09PM 37.7185 -82.9471 66° East  Level FlightAware Approximate
08:09PM 37.7739 -82.8211 66° East 488 562 38,800  Level Indianapolis Center
08:10PM 37.8383 -82.6447 65° Northeast 477 549 41,000 1,020 Climbing Indianapolis Center
08:11PM 37.8939 -82.4850 66° East 491 565 41,000  Level Indianapolis Center
08:12PM 37.9514 -82.3181 66° East 512 589 41,000  Level Indianapolis Center
08:13PM 38.0422 -82.1786 50° Northeast 514 592 41,000  Level Indianapolis Center
08:14PM 38.1275 -82.0553 49° Northeast 516 594 41,000 -120 Level Indianapolis Center
08:15PM 38.2108 -81.8586 62° Northeast 529 609 40,800 -660 Descending Indianapolis Center
08:16PM 38.2781 -81.6928 63° Northeast 532 612 39,700 -960 Descending Indianapolis Center
08:17PM 38.3467 -81.5236 63° Northeast 539 620 38,900 -1,080 Descending Indianapolis Center
08:18PM 38.4153 -81.3564 62° Northeast 539 620 37,500 -1,320 Descending Indianapolis Center
08:20PM 38.4822 -81.1897 63° Northeast 537 618 36,200 -1,800 Descending Indianapolis Center
08:21PM 38.5469 -81.0289 63° Northeast 517 595 33,800 -1,620 Descending Indianapolis Center
08:22PM 38.6283 -80.8253 63° Northeast 538 619 33,000 -420 Descending Indianapolis Center
08:23PM 38.6953 -80.6547 63° Northeast 538 619 33,000  Level Indianapolis Center
08:24PM 38.7636 -80.4811 63° Northeast 545 627 33,000 -1,740 Level Indianapolis Center
08:25PM 38.8322 -80.3078 63° Northeast 546 628 29,500 -2,700 Descending Indianapolis Center
08:26PM 38.9011 -80.1342 63° Northeast 547 629 27,500 -1,800 Descending Indianapolis Center
08:27PM 38.9536 -79.9617 69° East 532 612 25,800 -1,260 Descending Indianapolis Center
08:28PM 39.0106 -79.7575 70° East 521 600 25,000 -660 Descending Indianapolis Center
08:29PM 39.0575 -79.5894 70° East 514 592 24,500 -1,260 Descending Indianapolis Center
08:30PM 39.1089 -79.4061 70° East 511 588 22,400 -2,100 Descending Indianapolis Center
08:31PM 39.1728 -79.2408 63° Northeast 506 582 20,200 -1,680 Descending Washington Center
08:32PM 39.2419 -79.0942 59° Northeast 480 552 19,000 -1,260 Descending Washington Center
08:33PM 39.2964 -78.9361 66° East 474 545 17,800 -1,020 Descending Washington Center
08:34PM 39.3528 -78.7803 65° Northeast 474 545 17,000 -1,140 Descending Washington Center
08:35PM 39.3842 -78.6097 77° East 474 545 15,600 -1,020 Descending Washington Center
08:36PM 39.3842 -78.4353 90° East 474 545 15,000 -240 Descending Washington Center
08:37PM 39.3833 -78.1667 90° East 495 570 15,000  Level Potomac TRACON
08:38PM 39.3858 -78.0833 88° East 484 557 15,000  Level Washington Center
08:39PM 39.3997 -77.9119 84° East 479 551 15,000  Level Washington Center
08:40PM 39.4153 -77.7381 83° East 479 551 15,000 -600 Level Washington Center
08:41PM 39.4283 -77.5853 84° East 479 551 13,800 -1,620 Descending Washington Center
08:42PM 39.4414 -77.4217 84° East 474 545 11,800 -2,040 Descending Washington Center
08:42PM 39.4500 -77.3333 83° East 442 509 11,000 -720 Descending Potomac TRACON
08:43PM 39.4500 -77.1833 90° East 431 496 10,800 -540 Descending Potomac TRACON
08:44PM 39.4456 -77.1208 95° East 423 487 10,200 -1,200 Descending Washington Center
08:45PM 39.4367 -76.9994 95° East 377 434 8,900 -1,560 Descending Washington Center
08:46PM 39.4294 -76.8892 95° East 332 382 7,100 -2,160 Descending Washington Center
08:46PM 39.4333 -76.8333 85° East 305 351 6,100 -2,100 Descending Potomac TRACON
08:47PM 39.4167 -76.7333 102° East 294 338 4,200 -1,500 Descending Potomac TRACON
08:48PM 39.3833 -76.6333 113° Southeast 275 316 3,000 -1,080 Descending Potomac TRACON
08:49PM 39.3667 -76.5500 104° East 242 278 2,100 -780 Descending Potomac TRACON
08:50PM 39.3333 -76.4833 123° Southeast 223 257 1,500 -360 Descending Potomac TRACON
08:51PM 39.2833 -76.4333 142° Southeast 190 219 1,400 -240 Descending Potomac TRACON
08:52PM 39.2833 -76.3833 90° East 176 203 1,100 -600 Descending Potomac TRACON
08:53PM 39.3167 -76.4000 339° North 153 176 300 -840 Descending Potomac TRACON
08:55PM 39.3257 -76.4138 339° North  Level Estimated
09:02PM 39.3257 -76.4138 339° North  Level Estimated
09:03PM 39.3257 -76.4138 339° North  Level Estimated
09:04PM 39.3257 -76.4138 339° North  Level Estimated
09:05PM 39.3257 -76.4138 339° North  Level Estimated
09:06PM 39.3257 -76.4138 339° North  Level Estimated
09:07PM 39.3257 -76.4138 339° North  Level Estimated
09:08PM 39.3257 -76.4138 339° North  Level Estimated
09:09PM 39.3257 -76.4138 339° North  Level Estimated